Time;durP1;ratioP1;P1;durP2;ratioP2;P2;SDS_P1;SDS_P2;PMS_P1;PMS_P2;Temp;Humidity;BMP_temperature;BMP_pressure;BME280_temperature;BME280_humidity;BME280_pressure;Samples;Min_cycle;Max_cycle;Signal;HPM_P1;HPM_P2
2021/05/24 00:00:40;;;;;;;;;;;;;;;18.91;51.76;100978.63;5045259;28;20380;-87
2021/05/24 00:03:25;;;;;;;;;;;;;;;19.06;51.39;100973.00;5025665;28;20292;-88
2021/05/24 00:06:28;;;;;;;;;;;;;;;19.01;51.85;100962.28;5045255;28;19913;-88
2021/05/24 00:09:12;;;;;;;;;;;;;;;19.06;51.74;100959.22;5045293;28;19917;-85
2021/05/24 00:11:57;;;;;;;;;;;;;;;19.01;51.89;100967.78;5048938;28;19913;-87
2021/05/24 00:14:47;;;;;;;;;;;;;;;18.96;51.90;100959.03;5047710;28;19913;-88
2021/05/24 00:17:32;;;;;;;;;;;;;;;18.95;51.86;100954.66;5059971;28;19912;-88
2021/05/24 00:20:18;;;;;;;;;;;;;;;18.92;52.38;100947.94;5064480;28;19912;-88
2021/05/24 00:23:03;;;;;;;;;;;;;;;18.90;52.33;100944.75;5058184;28;19912;-87
2021/05/24 00:25:48;;;;;;;;;;;;;;;18.85;51.85;100947.00;5051674;28;19916;-86
2021/05/24 00:28:33;;;;;;;;;;;;;;;18.76;52.34;100953.53;5062418;28;20384;-86
2021/05/24 00:31:18;;;;;;;;;;;;;;;18.67;52.50;100947.47;5062643;28;19913;-87
2021/05/24 00:34:03;;;;;;;;;;;;;;;18.69;52.45;100942.38;5045272;28;19913;-87
2021/05/24 00:36:48;;;;;;;;;;;;;;;18.61;52.47;100939.84;5042519;28;20308;-86
2021/05/24 00:39:32;;;;;;;;;;;;;;;18.52;52.90;100944.78;5046016;28;19913;-87
2021/05/24 00:42:16;;;;;;;;;;;;;;;18.51;52.94;100941.22;5057431;28;19913;-86
2021/05/24 00:45:03;;;;;;;;;;;;;;;18.51;52.71;100935.72;5050204;28;19913;-86
2021/05/24 00:47:49;;;;;;;;;;;;;;;18.50;52.87;100934.09;5042186;28;20332;-84
2021/05/24 00:50:34;;;;;;;;;;;;;;;18.63;52.57;100930.09;5048476;28;19917;-85
2021/05/24 00:53:18;;;;;;;;;;;;;;;18.60;52.80;100936.31;5049121;28;19913;-86
2021/05/24 00:56:03;;;;;;;;;;;;;;;18.69;52.57;100933.34;5054559;28;19913;-86
2021/05/24 00:58:48;;;;;;;;;;;;;;;18.56;52.61;100934.66;5049777;28;20376;-87
2021/05/24 01:01:32;;;;;;;;;;;;;;;18.50;52.33;100931.34;5056482;28;19924;-87
2021/05/24 01:04:19;;;;;;;;;;;;;;;18.56;52.74;100915.38;5055423;28;19912;-86
2021/05/24 01:07:04;;;;;;;;;;;;;;;18.62;52.33;100911.16;5055638;28;19913;-87
2021/05/24 01:09:49;;;;;;;;;;;;;;;18.57;52.71;100908.69;5059471;28;19916;-86
2021/05/24 01:12:33;;;;;;;;;;;;;;;18.46;52.63;100900.19;5039865;28;20312;-87
2021/05/24 01:15:17;;;;;;;;;;;;;;;18.39;52.80;100900.03;5061340;28;19913;-84
2021/05/24 01:18:03;;;;;;;;;;;;;;;18.51;52.46;100891.66;5061774;28;19913;-87
2021/05/24 01:20:47;;;;;;;;;;;;;;;18.58;52.40;100889.06;5062103;28;19916;-87
2021/05/24 01:23:52;;;;;;;;;;;;;;;18.51;51.90;100888.09;5046188;28;19913;-87
2021/05/24 01:26:37;;;;;;;;;;;;;;;18.55;51.87;100878.75;5062357;28;19912;-87
2021/05/24 01:32:44;;;;;;;;;;;;;;;18.61;51.59;100879.25;5057251;22;19921;-86
2021/05/24 01:38:33;;;;;;;;;;;;;;;18.69;50.93;100865.25;5032061;28;19913;-85
2021/05/24 01:41:18;;;;;;;;;;;;;;;18.69;50.41;100873.50;5046115;28;19913;-85
2021/05/24 01:44:03;;;;;;;;;;;;;;;18.68;50.15;100877.44;5042400;28;19917;-85
2021/05/24 01:46:47;;;;;;;;;;;;;;;18.64;50.37;100884.06;5046623;28;19917;-85
2021/05/24 01:49:51;;;;;;;;;;;;;;;18.57;49.70;100878.41;5046725;28;20417;-86
2021/05/24 01:52:54;;;;;;;;;;;;;;;18.58;49.82;100867.03;5043544;28;19913;-85
2021/05/24 01:55:57;;;;;;;;;;;;;;;18.56;49.23;100858.31;5026172;28;19913;-85
2021/05/24 01:58:42;;;;;;;;;;;;;;;18.60;49.96;100870.19;5038159;28;20127;-85
2021/05/24 02:01:26;;;;;;;;;;;;;;;18.60;49.00;100863.88;5046763;28;19913;-85
2021/05/24 02:04:11;;;;;;;;;;;;;;;18.58;49.21;100877.25;5041738;28;20294;-85
2021/05/24 02:07:14;;;;;;;;;;;;;;;18.56;49.10;100874.84;5043541;28;20289;-85
2021/05/24 02:09:58;;;;;;;;;;;;;;;18.60;48.64;100875.72;5039629;28;19917;-85
2021/05/24 02:12:44;;;;;;;;;;;;;;;18.64;49.00;100881.31;5045360;28;19913;-85
2021/05/24 02:15:30;;;;;;;;;;;;;;;18.64;48.68;100876.56;5047212;28;19913;-85
2021/05/24 02:18:15;;;;;;;;;;;;;;;18.68;48.55;100880.19;5045965;28;19913;-85
2021/05/24 02:21:00;;;;;;;;;;;;;;;18.57;48.71;100879.19;5046816;28;19913;-85
2021/05/24 02:23:44;;;;;;;;;;;;;;;18.63;49.22;100891.53;5043019;28;19913;-85
2021/05/24 02:26:29;;;;;;;;;;;;;;;18.64;48.46;100887.56;5056031;28;19913;-85
2021/05/24 02:29:14;;;;;;;;;;;;;;;18.65;48.48;100900.19;5055989;28;19916;-85
2021/05/24 02:32:18;;;;;;;;;;;;;;;18.60;48.80;100896.94;5038229;28;19913;-84
2021/05/24 02:35:04;;;;;;;;;;;;;;;18.62;48.87;100895.44;5046726;28;19948;-85
2021/05/24 02:37:49;;;;;;;;;;;;;;;18.69;48.60;100898.31;5043905;28;19913;-85
2021/05/24 02:40:34;;;;;;;;;;;;;;;18.65;48.44;100900.19;5041952;28;19913;-85
2021/05/24 02:43:19;;;;;;;;;;;;;;;18.67;48.61;100889.63;5041321;28;20302;-85
2021/05/24 02:46:03;;;;;;;;;;;;;;;18.66;48.69;100879.75;5044030;28;19913;-85
2021/05/24 02:48:47;;;;;;;;;;;;;;;18.65;48.73;100872.66;5042427;28;19921;-84
2021/05/24 02:51:32;;;;;;;;;;;;;;;18.68;48.24;100871.13;5039753;28;20316;-84
2021/05/24 02:54:17;;;;;;;;;;;;;;;18.63;48.45;100866.72;5040095;28;20377;-85
2021/05/24 02:57:02;;;;;;;;;;;;;;;18.65;47.85;100863.59;5042598;28;19913;-85
2021/05/24 02:59:47;;;;;;;;;;;;;;;18.68;48.17;100868.38;5040533;28;20381;-85
2021/05/24 03:02:31;;;;;;;;;;;;;;;18.62;48.13;100865.13;5045840;28;20296;-85
2021/05/24 03:05:18;;;;;;;;;;;;;;;18.63;48.61;100869.47;5056354;28;19913;-84
2021/05/24 03:08:03;;;;;;;;;;;;;;;18.61;47.81;100866.28;5058723;28;19917;-84
2021/05/24 03:14:10;;;;;;;;;;;;;;;18.64;47.72;100876.56;5023551;28;19913;-84
2021/05/24 03:16:54;;;;;;;;;;;;;;;18.47;47.98;100881.72;5036103;28;19912;-84
2021/05/24 03:19:39;;;;;;;;;;;;;;;18.27;47.96;100883.69;5042982;28;19913;-84
2021/05/24 03:25:27;;;;;;;;;;;;;;;18.24;48.38;100901.72;5051992;28;19913;-84
2021/05/24 03:28:11;;;;;;;;;;;;;;;18.05;48.26;100907.22;5054502;28;19913;-85
2021/05/24 03:30:56;;;;;;;;;;;;;;;18.19;48.14;100914.97;5043393;28;19917;-85
2021/05/24 03:33:40;;;;;;;;;;;;;;;18.04;48.62;100915.81;5045900;28;19912;-85
2021/05/24 03:36:25;;;;;;;;;;;;;;;18.00;48.12;100921.25;5046493;28;19913;-85
2021/05/24 03:39:11;;;;;;;;;;;;;;;18.10;47.99;100919.91;5043438;28;20469;-84
2021/05/24 03:41:55;;;;;;;;;;;;;;;18.04;48.35;100915.81;5042824;28;19913;-85
2021/05/24 03:50:47;;;;;;;;;;;;;;;17.87;47.98;100925.31;5050807;28;19917;-85
2021/05/24 03:53:32;;;;;;;;;;;;;;;17.79;47.79;100940.84;5042146;28;19913;-85
2021/05/24 03:56:17;;;;;;;;;;;;;;;17.67;47.98;100948.44;5030133;28;19913;-84
2021/05/24 03:59:02;;;;;;;;;;;;;;;17.66;48.07;100952.31;5026393;28;19913;-85
2021/05/24 04:01:49;;;;;;;;;;;;;;;17.59;50.05;100950.19;5041016;28;19913;-85
2021/05/24 04:04:34;;;;;;;;;;;;;;;17.35;54.15;100948.41;5038820;28;19912;-85
2021/05/24 04:07:23;;;;;;;;;;;;;;;17.40;54.27;100925.34;5046037;28;19913;-85
2021/05/24 04:10:08;;;;;;;;;;;;;;;17.41;53.95;100913.22;5044006;28;19921;-85
2021/05/24 04:12:53;;;;;;;;;;;;;;;17.48;52.60;100907.84;5044881;28;20392;-85
2021/05/24 04:15:57;;;;;;;;;;;;;;;17.56;51.87;100906.09;5030073;28;19912;-84
2021/05/24 04:19:06;;;;;;;;;;;;;;;17.65;51.23;100907.53;5057506;28;19913;-84
2021/05/24 04:21:51;;;;;;;;;;;;;;;17.60;51.61;100918.00;5040163;28;19913;-85
2021/05/24 04:24:35;;;;;;;;;;;;;;;17.57;52.86;100911.25;5032474;28;19913;-85
2021/05/24 04:27:39;;;;;;;;;;;;;;;17.47;54.33;100900.78;5053819;28;19913;-84
2021/05/24 04:30:23;;;;;;;;;;;;;;;17.41;54.99;100888.47;5066787;28;19921;-84
2021/05/24 04:33:08;;;;;;;;;;;;;;;17.44;54.49;100882.25;5064775;28;19913;-85
2021/05/24 04:35:53;;;;;;;;;;;;;;;17.46;54.13;100883.50;5041306;28;20113;-84
2021/05/24 04:38:37;;;;;;;;;;;;;;;17.59;53.62;100895.19;5045613;28;19912;-85
2021/05/24 04:41:22;;;;;;;;;;;;;;;17.60;53.57;100890.50;5043320;28;19913;-86
2021/05/24 04:47:28;;;;;;;;;;;;;;;17.24;54.14;100897.06;5045127;28;19921;-85
2021/05/24 04:50:14;;;;;;;;;;;;;;;17.25;54.66;100915.97;5041845;28;20392;-85
2021/05/24 04:53:00;;;;;;;;;;;;;;;17.29;54.25;100900.34;5044603;28;19912;-86
2021/05/24 04:55:45;;;;;;;;;;;;;;;17.31;54.61;100884.31;5044356;28;19917;-86
2021/05/24 04:58:48;;;;;;;;;;;;;;;17.32;54.58;100887.84;5026137;28;19917;-85
2021/05/24 05:01:33;;;;;;;;;;;;;;;17.21;55.02;100892.28;5041050;28;19917;-85
2021/05/24 05:04:36;;;;;;;;;;;;;;;17.41;54.46;100907.72;5041450;28;19913;-85
2021/05/24 05:07:40;;;;;;;;;;;;;;;17.37;55.12;100924.09;5040619;28;19932;-84
2021/05/24 05:10:26;;;;;;;;;;;;;;;17.38;55.27;100930.41;5045516;28;19917;-85
2021/05/24 05:13:10;;;;;;;;;;;;;;;17.40;55.28;100939.91;5043519;28;19913;-85
2021/05/24 05:18:58;;;;;;;;;;;;;;;17.42;55.65;100954.06;5044954;28;19913;-86
2021/05/24 05:21:43;;;;;;;;;;;;;;;17.00;57.67;100977.72;5037965;28;19912;-86
2021/05/24 05:27:31;;;;;;;;;;;;;;;16.81;58.92;101011.34;5038371;28;19913;-85
2021/05/24 05:30:16;;;;;;;;;;;;;;;16.60;60.15;101017.06;5036449;28;19917;-86
2021/05/24 05:33:01;;;;;;;;;;;;;;;16.96;58.92;101016.09;5020308;28;19914;-86
2021/05/24 05:35:48;;;;;;;;;;;;;;;17.14;58.12;101018.53;5033097;28;19972;-83
2021/05/24 05:38:33;;;;;;;;;;;;;;;17.22;57.92;101017.56;5035221;28;19913;-84
2021/05/24 05:41:18;;;;;;;;;;;;;;;17.32;57.99;101030.81;5038942;28;19912;-85
2021/05/24 05:44:03;;;;;;;;;;;;;;;17.52;57.50;101030.53;5039811;28;20120;-85
2021/05/24 05:46:48;;;;;;;;;;;;;;;17.74;57.54;101023.66;5040185;28;20384;-85
2021/05/24 05:49:32;;;;;;;;;;;;;;;17.94;57.00;101030.00;5040004;28;19913;-85
2021/05/24 05:52:18;;;;;;;;;;;;;;;18.14;56.66;101050.13;5044148;28;19913;-85
2021/05/24 05:55:06;;;;;;;;;;;;;;;18.28;56.46;101070.56;5042070;28;19912;-85
2021/05/24 05:57:51;;;;;;;;;;;;;;;18.20;57.02;101090.81;5046465;28;19913;-85
2021/05/24 06:00:37;;;;;;;;;;;;;;;18.07;58.17;101105.84;5043871;28;19913;-85
2021/05/24 06:03:22;;;;;;;;;;;;;;;17.68;59.40;101104.81;5042769;28;20369;-85
2021/05/24 06:06:25;;;;;;;;;;;;;;;17.31;60.42;101112.47;5040149;28;19913;-85
2021/05/24 06:09:09;;;;;;;;;;;;;;;17.09;60.86;101100.06;5039253;28;19913;-85
2021/05/24 06:11:54;;;;;;;;;;;;;;;17.01;61.15;101103.78;5042245;28;20300;-86
2021/05/24 06:14:39;;;;;;;;;;;;;;;16.96;61.33;101097.72;5040097;28;19913;-84
2021/05/24 06:20:47;;;;;;;;;;;;;;;17.35;60.87;101063.88;5040548;28;19914;-84
2021/05/24 06:23:31;;;;;;;;;;;;;;;17.60;60.45;101053.56;5047292;28;20373;-84
2021/05/24 06:26:16;;;;;;;;;;;;;;;17.60;60.93;101050.81;5040900;28;19913;-84
2021/05/24 06:29:00;;;;;;;;;;;;;;;17.67;61.16;101031.75;5039903;28;19913;-85
2021/05/24 06:31:46;;;;;;;;;;;;;;;17.85;60.56;101021.16;5042777;28;20389;-84
2021/05/24 06:34:31;;;;;;;;;;;;;;;17.70;61.68;101020.00;5039113;28;19925;-84
2021/05/24 06:40:20;;;;;;;;;;;;;;;17.63;62.18;101008.81;5043507;28;20293;-85
2021/05/24 06:43:04;;;;;;;;;;;;;;;17.80;61.57;101008.47;5041271;28;19913;-85
2021/05/24 06:45:49;;;;;;;;;;;;;;;17.74;61.86;101007.13;5039468;28;19913;-85
2021/05/24 06:48:35;;;;;;;;;;;;;;;17.68;62.27;100994.00;5042882;28;19913;-85
2021/05/24 06:51:19;;;;;;;;;;;;;;;17.55;62.82;100982.28;5041776;28;19917;-84
2021/05/24 06:54:05;;;;;;;;;;;;;;;17.82;61.97;100975.13;5038174;28;19912;-85
2021/05/24 06:59:53;;;;;;;;;;;;;;;17.97;61.53;100929.44;5040957;28;19917;-86
2021/05/24 07:02:39;;;;;;;;;;;;;;;17.98;61.50;100909.81;5038787;28;19913;-86
2021/05/24 07:05:23;;;;;;;;;;;;;;;18.04;61.40;100880.06;5042570;28;20405;-86
2021/05/24 07:08:08;;;;;;;;;;;;;;;18.09;61.44;100855.00;5042980;28;19913;-84
2021/05/24 07:10:52;;;;;;;;;;;;;;;18.10;61.56;100835.38;5040626;28;19917;-84
2021/05/24 07:13:37;;;;;;;;;;;;;;;17.88;62.60;100844.34;5042423;28;19913;-85
2021/05/24 07:16:22;;;;;;;;;;;;;;;17.92;62.45;100859.00;5042634;28;19913;-85
2021/05/24 07:19:06;;;;;;;;;;;;;;;17.77;62.92;100849.66;5039696;28;19913;-85
2021/05/24 07:21:51;;;;;;;;;;;;;;;17.90;62.32;100828.28;5043346;28;20289;-85
2021/05/24 07:24:56;;;;;;;;;;;;;;;17.74;62.87;100833.03;5039073;28;19913;-86
2021/05/24 07:27:41;;;;;;;;;;;;;;;17.64;63.82;100845.41;5038600;28;20377;-85
2021/05/24 07:30:25;;;;;;;;;;;;;;;17.16;65.79;100851.34;5055530;28;20296;-85
2021/05/24 07:33:47;;;;;;;;;;;;;;;16.93;66.72;100865.69;5058743;22;19925;-82
2021/05/24 07:36:32;;;;;;;;;;;;;;;16.88;65.75;100871.44;5018011;28;19917;-81
2021/05/24 07:39:16;;;;;;;;;;;;;;;16.74;66.13;100864.78;5016109;28;19913;-81
2021/05/24 07:42:01;;;;;;;;;;;;;;;16.73;65.68;100893.41;5018915;28;19913;-81
2021/05/24 07:44:46;;;;;;;;;;;;;;;16.61;66.07;100913.47;5017294;28;19913;-78
2021/05/24 07:47:49;;;;;;;;;;;;;;;16.42;67.15;100921.53;5017684;28;19913;-80
2021/05/24 07:50:33;;;;;;;;;;;;;;;16.43;66.87;100923.97;5020874;28;19917;-81
2021/05/24 07:53:18;;;;;;;;;;;;;;;16.53;66.70;100914.41;5019280;28;19917;-81
2021/05/24 07:56:02;;;;;;;;;;;;;;;16.63;66.23;100894.72;5027943;28;19913;-81
2021/05/24 07:58:47;;;;;;;;;;;;;;;16.84;65.74;100878.81;5024820;28;19913;-82
2021/05/24 08:01:32;;;;;;;;;;;;;;;16.79;65.79;100881.00;5021810;28;19939;-82
2021/05/24 08:04:17;;;;;;;;;;;;;;;16.68;66.45;100870.56;5019130;28;19913;-82
2021/05/24 08:07:01;;;;;;;;;;;;;;;16.92;64.86;100866.84;5022615;28;19913;-81
2021/05/24 08:09:47;;;;;;;;;;;;;;;16.82;65.70;100867.38;5020626;28;19914;-81
2021/05/24 08:12:36;;;;;;;;;;;;;;;16.92;65.33;100872.34;5019059;28;19917;-80
2021/05/24 08:15:30;;;;;;;;;;;;;;;16.97;65.53;100874.81;5022969;28;19913;-80
2021/05/24 08:18:15;;;;;;;;;;;;;;;17.07;65.22;100876.22;5020086;28;20282;-79
2021/05/24 08:21:18;;;;;;;;;;;;;;;17.31;64.79;100887.06;5017824;28;19913;-79
2021/05/24 08:27:25;;;;;;;;;;;;;;;17.86;62.60;100976.78;5023330;28;19914;-80
2021/05/24 08:30:11;;;;;;;;;;;;;;;18.06;61.61;100968.56;5023132;28;19913;-83
2021/05/24 08:32:55;;;;;;;;;;;;;;;17.71;63.60;100952.84;5020303;28;19914;-86
2021/05/24 08:35:39;;;;;;;;;;;;;;;17.82;62.93;100939.34;5017451;28;19917;-87
2021/05/24 08:38:24;;;;;;;;;;;;;;;18.01;62.18;100933.06;5019898;28;19913;-82
2021/05/24 08:41:09;;;;;;;;;;;;;;;18.39;61.18;100941.34;5021670;28;20401;-84
2021/05/24 08:43:54;;;;;;;;;;;;;;;18.32;61.35;100943.97;5021546;28;19914;-84
2021/05/24 08:46:38;;;;;;;;;;;;;;;18.46;61.00;100936.00;5024655;28;19917;-82
2021/05/24 08:49:23;;;;;;;;;;;;;;;18.19;62.02;100953.50;5023810;28;19914;-82
2021/05/24 08:52:07;;;;;;;;;;;;;;;18.49;60.82;100982.09;5021318;28;19917;-81
2021/05/24 08:54:52;;;;;;;;;;;;;;;18.40;61.24;101003.53;5021277;28;19913;-82
2021/05/24 08:57:38;;;;;;;;;;;;;;;18.42;61.03;101023.25;5023661;28;19917;-83
2021/05/24 09:00:22;;;;;;;;;;;;;;;18.42;60.90;101012.25;5021809;28;19913;-84
2021/05/24 09:03:19;;;;;;;;;;;;;;;18.05;62.59;101011.81;5024826;28;19913;-83
2021/05/24 09:06:07;;;;;;;;;;;;;;;17.74;62.97;100996.13;5022088;28;19913;-82
2021/05/24 09:08:52;;;;;;;;;;;;;;;17.34;63.83;100985.31;5020071;28;19914;-83
2021/05/24 09:11:37;;;;;;;;;;;;;;;17.20;64.43;100968.44;5023569;28;19917;-82
2021/05/24 09:14:22;;;;;;;;;;;;;;;17.44;63.43;100950.97;5019866;28;19914;-84
2021/05/24 09:17:47;;;;;;;;;;;;;;;17.63;63.61;100937.31;5018622;28;20185;-82
2021/05/24 09:20:33;;;;;;;;;;;;;;;17.59;64.07;100930.94;5021810;28;19913;-82
2021/05/24 09:23:36;;;;;;;;;;;;;;;17.47;64.72;100922.78;5018416;28;19913;-83
2021/05/24 09:26:21;;;;;;;;;;;;;;;17.22;66.35;100935.91;5021627;28;19913;-84
2021/05/24 09:29:07;;;;;;;;;;;;;;;17.22;66.37;100924.13;5034106;28;19913;-83
2021/05/24 09:32:10;;;;;;;;;;;;;;;17.49;65.16;100903.97;5043586;28;19920;-84
2021/05/24 09:34:59;;;;;;;;;;;;;;;17.56;64.93;100897.84;5048049;28;20296;-80
2021/05/24 09:37:44;;;;;;;;;;;;;;;17.53;65.35;100888.34;5032090;28;19913;-82
2021/05/24 09:40:55;;;;;;;;;;;;;;;17.48;65.54;100881.16;5044971;28;19913;-83
2021/05/24 09:43:40;;;;;;;;;;;;;;;17.31;66.81;100872.50;5040303;28;19913;-83
2021/05/24 09:46:26;;;;;;;;;;;;;;;17.33;66.27;100872.94;5034400;28;19921;-82
2021/05/24 09:49:30;;;;;;;;;;;;;;;17.43;65.96;100855.91;5040914;28;20284;-83
2021/05/24 09:52:14;;;;;;;;;;;;;;;17.55;65.91;100858.53;5050977;28;20365;-82
2021/05/24 09:55:11;;;;;;;;;;;;;;;17.60;65.77;100872.03;5034540;28;19917;-82
2021/05/24 09:57:57;;;;;;;;;;;;;;;17.85;64.94;100878.09;5038250;28;19921;-80
2021/05/24 10:00:51;;;;;;;;;;;;;;;18.04;64.24;100875.34;5016520;28;19913;-83
2021/05/24 10:03:55;;;;;;;;;;;;;;;18.23;63.77;100866.31;5028411;28;19913;-82
2021/05/24 10:07:01;;;;;;;;;;;;;;;17.81;64.67;100863.47;5042655;28;19913;-80
2021/05/24 10:09:47;;;;;;;;;;;;;;;17.91;64.89;100865.66;5049358;28;19912;-80
2021/05/24 10:12:31;;;;;;;;;;;;;;;18.09;64.77;100864.06;5049282;28;19917;-80
2021/05/24 10:15:16;;;;;;;;;;;;;;;18.29;64.18;100867.59;5049222;28;19912;-81
2021/05/24 10:18:03;;;;;;;;;;;;;;;18.05;65.08;100865.94;5042892;28;19917;-78
2021/05/24 10:20:47;;;;;;;;;;;;;;;17.89;65.50;100878.97;5049882;28;20689;-80
2021/05/24 10:23:32;;;;;;;;;;;;;;;17.80;65.98;100859.13;5039937;28;20305;-81
2021/05/24 10:26:37;;;;;;;;;;;;;;;17.70;66.22;100835.72;5042663;28;19913;-79
2021/05/24 10:29:23;;;;;;;;;;;;;;;17.55;67.34;100820.03;5037456;28;19913;-79
2021/05/24 10:32:08;;;;;;;;;;;;;;;17.72;66.65;100805.91;5041764;28;19917;-83
2021/05/24 10:34:55;;;;;;;;;;;;;;;17.76;66.33;100819.75;5034254;28;19913;-83
2021/05/24 10:37:41;;;;;;;;;;;;;;;17.53;67.62;100811.34;5033861;28;19938;-82
2021/05/24 10:40:26;;;;;;;;;;;;;;;17.64;67.08;100795.91;5037923;28;19913;-83
2021/05/24 10:43:14;;;;;;;;;;;;;;;17.77;66.95;100775.38;5040622;28;19916;-79
2021/05/24 10:46:19;;;;;;;;;;;;;;;17.80;66.73;100749.88;5034879;28;20377;-82
2021/05/24 10:49:05;;;;;;;;;;;;;;;17.71;67.22;100688.81;5039505;28;19913;-83
2021/05/24 10:52:09;;;;;;;;;;;;;;;17.71;67.20;100688.81;5042057;28;19916;-81
2021/05/24 10:54:55;;;;;;;;;;;;;;;17.72;66.73;100708.84;5043601;28;19917;-83
2021/05/24 10:57:39;;;;;;;;;;;;;;;17.76;66.99;100677.50;5043684;28;19912;-84
2021/05/24 11:00:24;;;;;;;;;;;;;;;17.68;66.95;100641.94;5045471;28;19917;-83
2021/05/24 11:03:09;;;;;;;;;;;;;;;17.71;66.99;100652.25;5035527;28;19913;-84
2021/05/24 11:06:13;;;;;;;;;;;;;;;17.65;67.04;100651.75;5037638;28;19912;-84
2021/05/24 11:09:02;;;;;;;;;;;;;;;17.70;66.84;100626.69;5027418;28;19917;-83
2021/05/24 11:11:50;;;;;;;;;;;;;;;17.71;66.60;100641.25;5029999;28;20301;-83
2021/05/24 11:14:54;;;;;;;;;;;;;;;17.33;67.76;100680.53;5039253;28;19921;-85
2021/05/24 11:17:59;;;;;;;;;;;;;;;17.51;67.05;100643.19;5035383;28;19913;-84
2021/05/24 11:20:48;;;;;;;;;;;;;;;17.59;66.56;100628.44;5026737;28;19923;-83
2021/05/24 11:26:38;;;;;;;;;;;;;;;17.63;66.70;100691.75;5031406;28;19913;-82
2021/05/24 11:29:23;;;;;;;;;;;;;;;17.71;66.58;100691.56;5035813;28;19913;-81
2021/05/24 11:32:23;;;;;;;;;;;;;;;17.67;66.48;100698.16;5026547;28;19921;-84
2021/05/24 11:35:27;;;;;;;;;;;;;;;17.62;66.09;100695.69;5011714;28;20632;-82
2021/05/24 11:38:28;;;;;;;;;;;;;;;17.64;66.36;100693.34;5031845;28;19913;-85
2021/05/24 11:41:14;;;;;;;;;;;;;;;17.49;67.03;100695.78;5032849;28;19942;-82
2021/05/24 11:47:08;;;;;;;;;;;;;;;17.00;68.66;100694.75;5040991;28;19913;-82
2021/05/24 11:49:57;;;;;;;;;;;;;;;17.28;67.97;100639.56;5048577;28;19913;-82
2021/05/24 11:52:42;;;;;;;;;;;;;;;17.15;68.64;100671.91;5042316;28;19917;-83
2021/05/24 11:55:46;;;;;;;;;;;;;;;17.21;68.43;100661.44;5036933;28;19912;-85
2021/05/24 11:58:30;;;;;;;;;;;;;;;17.34;68.22;100671.91;5044826;28;19913;-83
2021/05/24 12:01:15;;;;;;;;;;;;;;;17.41;68.11;100694.06;5041485;28;19913;-84
2021/05/24 12:04:10;;;;;;;;;;;;;;;17.56;67.80;100714.41;5039410;28;20376;-85
2021/05/24 12:06:58;;;;;;;;;;;;;;;17.70;67.52;100691.91;5030284;28;19917;-83
2021/05/24 12:09:53;;;;;;;;;;;;;;;17.75;66.56;100688.84;5040839;28;19913;-86
2021/05/24 12:12:38;;;;;;;;;;;;;;;17.59;66.38;100688.94;5044205;28;19917;-84
2021/05/24 12:15:26;;;;;;;;;;;;;;;17.38;67.26;100710.47;5046698;28;19917;-83
2021/05/24 12:18:30;;;;;;;;;;;;;;;17.08;68.45;100704.72;5032303;28;19913;-83
2021/05/24 12:21:41;;;;;;;;;;;;;;;17.29;67.81;100657.66;5036891;28;20289;-84
2021/05/24 12:24:26;;;;;;;;;;;;;;;17.44;67.50;100610.06;5035228;28;19917;-83
2021/05/24 12:27:11;;;;;;;;;;;;;;;17.65;67.29;100549.19;5050929;28;20372;-81
2021/05/24 12:33:15;;;;;;;;;;;;;;;17.78;67.05;100547.84;5025191;28;19925;-81
2021/05/24 12:36:22;;;;;;;;;;;;;;;17.61;66.38;100587.63;5032271;28;19917;-82
2021/05/24 12:39:07;;;;;;;;;;;;;;;17.32;68.37;100597.25;5017059;28;19913;-83
2021/05/24 12:41:53;;;;;;;;;;;;;;;17.22;68.27;100578.59;5020930;28;19913;-82
2021/05/24 12:47:42;;;;;;;;;;;;;;;17.05;69.21;100598.31;5030934;28;19914;-81
2021/05/24 12:50:28;;;;;;;;;;;;;;;16.78;70.29;100613.00;5039390;28;19913;-82
2021/05/24 12:53:20;;;;;;;;;;;;;;;16.92;69.76;100619.59;5035395;28;19917;-82
2021/05/24 12:56:08;;;;;;;;;;;;;;;16.84;69.95;100633.56;5039183;28;19917;-82
2021/05/24 12:58:52;;;;;;;;;;;;;;;16.82;69.57;100628.41;5046454;28;19913;-83
2021/05/24 13:04:41;;;;;;;;;;;;;;;17.13;68.17;100619.25;5027228;28;20285;-82
2021/05/24 13:07:26;;;;;;;;;;;;;;;17.31;67.83;100617.69;5038355;28;19914;-82
2021/05/24 13:10:12;;;;;;;;;;;;;;;17.37;67.23;100631.94;5029666;28;19913;-83
2021/05/24 13:13:01;;;;;;;;;;;;;;;17.54;67.35;100625.97;5045589;28;20288;-80
2021/05/24 13:15:51;;;;;;;;;;;;;;;17.66;67.26;100620.34;5048295;28;19913;-83
2021/05/24 13:30:41;;;;;;;;;;;;;;;17.64;65.13;100666.66;5046703;28;19916;-82
2021/05/24 13:33:28;;;;;;;;;;;;;;;17.45;65.39;100669.38;5050423;22;19920;-86
2021/05/24 13:36:13;;;;;;;;;;;;;;;17.36;65.54;100668.81;5048641;28;19921;-85
2021/05/24 13:39:05;;;;;;;;;;;;;;;17.33;65.74;100662.06;5053193;28;19924;-85
2021/05/24 13:41:55;;;;;;;;;;;;;;;17.01;66.65;100669.66;5045163;28;19913;-86
2021/05/24 13:44:42;;;;;;;;;;;;;;;16.99;67.14;100660.19;5035358;28;19913;-86
2021/05/24 13:47:26;;;;;;;;;;;;;;;16.89;68.32;100658.78;5033408;28;19924;-85
2021/05/24 13:50:11;;;;;;;;;;;;;;;16.59;69.34;100671.44;5037496;28;19914;-85
2021/05/24 13:56:19;;;;;;;;;;;;;;;16.75;67.99;100677.72;5031435;28;19913;-86
2021/05/24 14:02:07;;;;;;;;;;;;;;;16.43;71.00;100684.34;5052650;28;19913;-85
2021/05/24 14:04:52;;;;;;;;;;;;;;;16.31;72.92;100684.44;5037733;28;19921;-88
2021/05/24 14:07:56;;;;;;;;;;;;;;;16.08;74.14;100670.53;5033397;28;19913;-87
2021/05/24 14:10:59;;;;;;;;;;;;;;;15.76;78.69;100673.25;5043696;28;19913;-87
2021/05/24 14:13:44;;;;;;;;;;;;;;;15.33;82.88;100664.97;5036855;28;19917;-88
2021/05/24 14:16:29;;;;;;;;;;;;;;;15.09;86.07;100671.28;5041283;28;19917;-88
2021/05/24 14:19:14;;;;;;;;;;;;;;;15.22;85.80;100692.06;5038364;28;19913;-87
2021/05/24 14:22:00;;;;;;;;;;;;;;;15.24;85.05;100703.44;5046783;28;19913;-88
2021/05/24 14:24:47;;;;;;;;;;;;;;;15.39;85.01;100705.44;5041243;28;19913;-88
2021/05/24 14:27:31;;;;;;;;;;;;;;;15.46;84.78;100687.63;5041439;28;19913;-88
2021/05/24 14:30:26;;;;;;;;;;;;;;;15.67;83.21;100677.28;5030558;28;19913;-88
2021/05/24 14:33:11;;;;;;;;;;;;;;;15.86;82.49;100630.78;5037312;28;19917;-87
2021/05/24 14:35:57;;;;;;;;;;;;;;;16.00;80.95;100641.34;5031761;28;19916;-87
2021/05/24 14:38:42;;;;;;;;;;;;;;;16.18;77.73;100654.34;5032879;28;20408;-86
2021/05/24 14:44:34;;;;;;;;;;;;;;;16.32;75.98;100615.47;5032990;28;19912;-85
2021/05/24 14:47:38;;;;;;;;;;;;;;;16.35;75.53;100638.69;5036978;28;19913;-84
2021/05/24 14:50:33;;;;;;;;;;;;;;;16.48;74.64;100629.19;5029951;28;19921;-87
2021/05/24 14:53:21;;;;;;;;;;;;;;;16.62;73.63;100549.91;5037783;28;19917;-85
2021/05/24 14:56:06;;;;;;;;;;;;;;;16.61;72.91;100468.69;5052039;28;19913;-84
2021/05/24 14:58:51;;;;;;;;;;;;;;;16.61;73.44;100457.72;5033189;28;19917;-85
2021/05/24 15:01:36;;;;;;;;;;;;;;;16.74;72.49;100478.38;5024374;28;19913;-85
2021/05/24 15:04:21;;;;;;;;;;;;;;;16.80;72.74;100490.69;5024843;28;19917;-85
2021/05/24 15:07:25;;;;;;;;;;;;;;;16.87;72.72;100493.53;5039729;28;19917;-85
2021/05/24 15:10:10;;;;;;;;;;;;;;;16.85;73.05;100492.34;5033816;28;19917;-85
2021/05/24 15:13:14;;;;;;;;;;;;;;;16.92;72.10;100509.72;5029600;28;19921;-87
2021/05/24 15:15:58;;;;;;;;;;;;;;;16.87;72.44;100523.75;5033012;28;19913;-86
2021/05/24 15:18:44;;;;;;;;;;;;;;;16.86;72.88;100543.38;5044746;28;20380;-85
2021/05/24 15:21:28;;;;;;;;;;;;;;;16.82;73.80;100562.50;5041063;28;19913;-85
2021/05/24 15:24:13;;;;;;;;;;;;;;;17.00;72.19;100573.88;5042661;28;19912;-84
2021/05/24 15:26:59;;;;;;;;;;;;;;;16.94;72.07;100575.31;5045801;28;19913;-83
2021/05/24 15:29:44;;;;;;;;;;;;;;;16.91;72.63;100565.06;5039871;28;19913;-84
2021/05/24 15:32:29;;;;;;;;;;;;;;;16.73;73.38;100561.13;5043209;28;19917;-84
2021/05/24 15:35:14;;;;;;;;;;;;;;;16.65;73.99;100558.25;5039535;28;19913;-82
2021/05/24 15:37:59;;;;;;;;;;;;;;;16.79;74.30;100546.75;5035248;28;19912;-87
2021/05/24 15:40:45;;;;;;;;;;;;;;;16.72;74.17;100532.06;5040815;28;19913;-84